< < Back
Terminal Aerodrome Forecast


Current Version              Previous Versions:   1  2  3  4  5  6  7  8  9  

Terminal Aerodrome Forecast

264
FTUS42 KTAE 010900 AAA
TAFDHN
TAF AMD
KDHN 010904Z 0109/0206 00000KT 4SM BR SKC
      TEMPO 0109/0110 1/2SM FG VV001
     FM011300 09005KT P6SM SKC
     FM012100 12005KT P6SM FEW040=



Latest METAR

656
SAUS70 KWBC 020200 RRA
MTRDHN
METAR KDHN 020153Z AUTO 00000KT 10SM CLR 21/19 A3003 RMK AO2 SLP163
T02060189


USA.gov is the U.S. government's official web portal to all federal, state and local government web resources and services.